Time;durP1;ratioP1;P1;durP2;ratioP2;P2;SDS_P1;SDS_P2;PMS_P1;PMS_P2;Temp;Humidity;BMP_temperature;BMP_pressure;BME280_temperature;BME280_humidity;BME280_pressure;Samples;Min_cycle;Max_cycle;Signal;HPM_P1;HPM_P2
2021/12/22 00:01:40;;;;;;;25.35;19.75;;;-1.80;99.90;;;;;;5074306;28;20795;-87
2021/12/22 00:04:07;;;;;;;25.67;18.70;;;-1.80;99.90;;;;;;5058944;28;20300;-86
2021/12/22 00:06:35;;;;;;;28.15;19.85;;;-1.90;99.90;;;;;;5056441;28;20819;-87
2021/12/22 00:09:05;;;;;;;24.70;20.35;;;-1.90;99.90;;;;;;5067125;28;20198;-86
2021/12/22 00:11:32;;;;;;;27.58;19.27;;;-1.90;99.90;;;;;;5061516;28;20571;-87
2021/12/22 00:14:01;;;;;;;29.83;20.73;;;-1.90;99.90;;;;;;5067665;28;20217;-86
2021/12/22 00:16:27;;;;;;;28.40;20.00;;;-1.90;99.90;;;;;;5076781;28;20198;-86
2021/12/22 00:18:54;;;;;;;28.42;21.10;;;-1.90;99.90;;;;;;5070062;28;20194;-86
2021/12/22 00:21:21;;;;;;;28.55;20.63;;;-2.00;99.90;;;;;;5058086;28;20764;-86
2021/12/22 00:23:48;;;;;;;32.67;18.63;;;-2.00;99.90;;;;;;5062998;28;20195;-86
2021/12/22 00:26:16;;;;;;;25.55;17.75;;;-2.10;99.90;;;;;;5043556;28;21807;-87
2021/12/22 00:28:44;;;;;;;24.08;20.08;;;-2.10;99.90;;;;;;5077118;28;20193;-87
2021/12/22 00:31:14;;;;;;;26.73;18.80;;;-2.10;99.90;;;;;;5058736;28;20224;-86
2021/12/22 00:33:47;;;;;;;24.27;19.48;;;-2.10;99.90;;;;;;5077984;28;20299;-87
2021/12/22 00:36:15;;;;;;;23.05;19.55;;;-2.10;99.90;;;;;;5074608;28;20197;-87
2021/12/22 00:38:42;;;;;;;28.00;19.70;;;-2.10;99.90;;;;;;5058472;28;20201;-87
2021/12/22 00:41:09;;;;;;;35.47;20.02;;;-2.10;99.90;;;;;;5058321;28;20222;-87
2021/12/22 00:43:37;;;;;;;25.92;21.15;;;-2.20;99.90;;;;;;5071236;28;20198;-86
2021/12/22 00:46:04;;;;;;;30.08;20.50;;;-2.20;99.90;;;;;;5072257;28;20200;-86
2021/12/22 00:48:32;;;;;;;31.08;21.17;;;-2.20;99.90;;;;;;5040124;28;20194;-87
2021/12/22 00:50:59;;;;;;;22.85;19.38;;;-2.30;99.90;;;;;;5072688;28;20228;-87
2021/12/22 00:53:26;;;;;;;30.15;19.92;;;-2.20;99.90;;;;;;5083614;28;20609;-87
2021/12/22 00:55:53;;;;;;;29.92;21.70;;;-2.20;99.90;;;;;;5056561;28;20809;-87
2021/12/22 00:58:20;;;;;;;29.73;21.35;;;-2.10;99.90;;;;;;5059366;28;20621;-87
2021/12/22 01:00:49;;;;;;;23.85;19.13;;;-2.10;99.90;;;;;;5062469;28;20245;-87
2021/12/22 01:03:17;;;;;;;22.63;17.80;;;-2.00;99.90;;;;;;5073753;28;20685;-87
2021/12/22 01:05:44;;;;;;;24.35;20.15;;;-2.20;99.90;;;;;;5060810;28;20578;-86
2021/12/22 01:08:11;;;;;;;25.58;19.38;;;-2.30;99.90;;;;;;5072923;28;20620;-87
2021/12/22 01:10:38;;;;;;;28.58;19.55;;;-2.40;99.90;;;;;;5060220;28;20709;-87
2021/12/22 01:13:08;;;;;;;27.90;20.10;;;-2.40;99.90;;;;;;5064195;28;20194;-86
2021/12/22 01:15:35;;;;;;;24.67;20.85;;;-2.40;99.90;;;;;;5091595;28;20213;-86
2021/12/22 01:18:10;;;;;;;28.83;20.77;;;-2.40;99.90;;;;;;5087209;28;20181;-86
2021/12/22 01:20:51;;;;;;;23.15;18.17;;;-2.40;99.90;;;;;;5070601;28;20218;-87
2021/12/22 01:23:20;;;;;;;26.75;19.60;;;-2.50;99.90;;;;;;5074958;28;20211;-86
2021/12/22 01:25:48;;;;;;;27.27;20.40;;;-2.50;99.90;;;;;;5084168;28;20262;-86
2021/12/22 01:28:16;;;;;;;30.88;20.10;;;-2.50;99.90;;;;;;5077164;28;20194;-86
2021/12/22 01:30:45;;;;;;;26.52;19.10;;;-2.50;99.90;;;;;;5076577;28;20243;-86
2021/12/22 01:33:14;;;;;;;28.38;20.20;;;-2.40;99.90;;;;;;5081758;28;20714;-86
2021/12/22 01:35:42;;;;;;;30.52;22.50;;;-2.40;99.90;;;;;;5066988;28;20592;-87
2021/12/22 01:38:09;;;;;;;30.60;18.90;;;-2.40;99.90;;;;;;5075098;28;20188;-87
2021/12/22 01:40:40;;;;;;;28.10;20.63;;;-2.40;99.90;;;;;;5078300;28;20217;-87
2021/12/22 01:43:08;;;;;;;23.17;17.92;;;-2.30;99.90;;;;;;5083052;28;20193;-86
2021/12/22 01:45:53;;;;;;;28.02;18.98;;;-2.40;99.90;;;;;;5083361;28;20320;-87
2021/12/22 01:51:31;;;;;;;25.67;20.40;;;-2.40;99.90;;;;;;5039520;28;20233;-87
2021/12/22 01:54:00;;;;;;;24.42;18.15;;;-2.40;99.90;;;;;;5074843;28;20213;-86
2021/12/22 01:56:30;;;;;;;26.00;19.55;;;-2.50;99.90;;;;;;5055333;28;20206;-87
2021/12/22 01:59:01;;;;;;;22.70;18.50;;;-2.50;99.90;;;;;;5072033;28;20649;-87
2021/12/22 02:01:31;;;;;;;27.27;19.55;;;-2.50;99.90;;;;;;5054003;28;20725;-86
2021/12/22 02:04:00;;;;;;;24.08;18.77;;;-2.50;99.90;;;;;;5073984;28;20193;-86
2021/12/22 02:06:26;;;;;;;26.13;20.13;;;-2.40;99.90;;;;;;5082576;28;20852;-87
2021/12/22 02:08:54;;;;;;;33.67;21.02;;;-2.40;99.90;;;;;;5072275;28;20577;-86
2021/12/22 02:11:21;;;;;;;30.17;21.05;;;-2.40;99.90;;;;;;5068687;28;20221;-85
2021/12/22 02:13:55;;;;;;;32.80;22.60;;;-2.40;99.90;;;;;;5056610;28;20194;-86
2021/12/22 02:16:27;;;;;;;28.52;20.88;;;-2.40;99.90;;;;;;5068216;28;20284;-86
2021/12/22 02:18:54;;;;;;;30.35;20.90;;;-2.40;99.90;;;;;;5055671;28;20198;-87
2021/12/22 02:21:26;;;;;;;34.55;20.80;;;-2.40;99.90;;;;;;5056266;28;20214;-87
2021/12/22 02:23:53;;;;;;;24.00;18.30;;;-2.40;99.90;;;;;;5070032;28;20302;-87
2021/12/22 02:26:24;;;;;;;30.38;20.02;;;-2.40;99.90;;;;;;5057198;28;20214;-87
2021/12/22 02:28:58;;;;;;;26.25;20.08;;;-2.50;99.90;;;;;;5057647;28;20580;-86
2021/12/22 02:32:06;;;;;;;28.40;19.17;;;-2.50;99.90;;;;;;5064157;28;20229;-86
2021/12/22 02:34:40;;;;;;;28.98;19.55;;;-2.40;99.90;;;;;;5065843;28;20309;-87
2021/12/22 02:37:11;;;;;;;33.10;21.65;;;-2.40;99.90;;;;;;5072427;28;20624;-87
2021/12/22 02:39:44;;;;;;;29.10;20.58;;;-2.40;99.90;;;;;;5074502;28;20291;-86
2021/12/22 02:42:12;;;;;;;30.42;18.75;;;-2.40;99.90;;;;;;5059649;28;20198;-87
2021/12/22 02:44:39;;;;;;;27.83;20.08;;;-2.40;99.90;;;;;;5059209;28;20190;-87
2021/12/22 02:47:17;;;;;;;27.98;20.67;;;-2.50;99.90;;;;;;5059466;28;20201;-86
2021/12/22 02:49:43;;;;;;;27.15;19.73;;;-2.40;99.90;;;;;;5062275;28;20224;-87
2021/12/22 02:52:12;;;;;;;28.63;20.00;;;-2.50;99.90;;;;;;5077631;28;20204;-86
2021/12/22 02:54:46;;;;;;;28.20;21.13;;;-2.50;99.90;;;;;;5068594;28;20300;-87
2021/12/22 02:57:24;;;;;;;27.15;19.88;;;-2.60;99.90;;;;;;5074667;28;20200;-86
2021/12/22 03:00:11;;;;;;;28.80;20.67;;;-2.60;99.90;;;;;;5080570;28;20236;-87
2021/12/22 03:02:44;;;;;;;30.45;21.02;;;-2.60;99.90;;;;;;5093485;28;20652;-86
2021/12/22 03:05:11;;;;;;;25.30;19.45;;;-2.60;99.90;;;;;;5089913;28;20197;-86
2021/12/22 03:07:39;;;;;;;27.33;19.80;;;-2.50;99.90;;;;;;5063988;28;20194;-86
2021/12/22 03:10:12;;;;;;;30.85;21.13;;;-2.60;99.90;;;;;;5077368;28;20612;-85
2021/12/22 03:12:40;;;;;;;31.25;21.30;;;-2.60;99.90;;;;;;5075731;28;20201;-86
2021/12/22 03:15:09;;;;;;;28.20;21.05;;;-2.60;99.90;;;;;;5064312;28;20260;-86
2021/12/22 03:17:36;;;;;;;28.95;22.38;;;-2.70;99.90;;;;;;5075857;28;20247;-86
2021/12/22 03:20:05;;;;;;;28.60;20.90;;;-2.70;99.90;;;;;;5076932;28;20213;-87
2021/12/22 03:22:31;;;;;;;29.77;20.67;;;-2.50;99.90;;;;;;5060647;28;20194;-86
2021/12/22 03:25:00;;;;;;;31.30;21.05;;;-2.60;99.90;;;;;;5076310;28;20221;-87
2021/12/22 03:27:26;;;;;;;27.67;20.42;;;-2.60;99.90;;;;;;5085728;28;20201;-86
2021/12/22 03:29:53;;;;;;;28.23;20.63;;;-2.60;99.90;;;;;;5096451;28;20205;-87
2021/12/22 03:32:20;;;;;;;32.38;21.63;;;-2.70;99.90;;;;;;5084061;28;20201;-86
2021/12/22 03:34:47;;;;;;;27.63;19.30;;;-2.70;99.90;;;;;;5043968;28;20209;-86
2021/12/22 03:37:14;;;;;;;27.77;20.83;;;-2.70;99.90;;;;;;5076201;28;20197;-86
2021/12/22 03:39:41;;;;;;;28.08;22.27;;;-2.70;99.90;;;;;;5060432;28;20218;-87
2021/12/22 03:42:11;;;;;;;32.28;20.58;;;-2.70;99.90;;;;;;5079251;28;20202;-86
2021/12/22 03:44:38;;;;;;;34.67;20.80;;;-2.70;99.90;;;;;;5079121;28;20197;-86
2021/12/22 03:47:07;;;;;;;31.13;20.52;;;-2.80;99.90;;;;;;5060346;28;20201;-87
2021/12/22 03:49:34;;;;;;;33.42;23.60;;;-2.80;99.90;;;;;;5056982;28;20221;-86
2021/12/22 03:52:01;;;;;;;33.10;22.55;;;-2.80;99.90;;;;;;5067212;28;20198;-87
2021/12/22 03:54:28;;;;;;;29.65;21.45;;;-2.90;99.90;;;;;;5062924;28;20219;-86
2021/12/22 03:56:55;;;;;;;32.47;21.17;;;-2.90;99.90;;;;;;5076143;28;20198;-87
2021/12/22 03:59:24;;;;;;;30.95;21.27;;;-2.90;99.90;;;;;;5063036;28;20223;-86
2021/12/22 04:01:52;;;;;;;37.13;21.50;;;-2.80;99.90;;;;;;5065659;28;20716;-87
2021/12/22 04:04:19;;;;;;;28.13;20.58;;;-2.90;99.90;;;;;;5056505;28;20198;-87
2021/12/22 04:06:47;;;;;;;30.02;21.80;;;-2.90;99.90;;;;;;5063770;28;20577;-87
2021/12/22 04:09:15;;;;;;;26.67;20.88;;;-3.00;99.90;;;;;;5055410;28;20201;-87
2021/12/22 04:11:43;;;;;;;30.63;20.85;;;-3.00;99.90;;;;;;5065010;28;20194;-86
2021/12/22 04:14:11;;;;;;;31.17;20.20;;;-2.90;99.90;;;;;;5063556;28;20201;-87
2021/12/22 04:16:40;;;;;;;38.50;22.30;;;-2.90;99.90;;;;;;5069181;28;20214;-87
2021/12/22 04:19:06;;;;;;;31.75;21.92;;;-3.00;99.90;;;;;;5066677;28;20193;-86
2021/12/22 04:21:34;;;;;;;30.20;21.15;;;-3.00;99.90;;;;;;5067209;28;20220;-87
2021/12/22 04:24:01;;;;;;;34.03;22.35;;;-3.00;99.90;;;;;;5075724;28;20208;-87
2021/12/22 04:26:31;;;;;;;29.75;20.77;;;-3.00;99.90;;;;;;5062539;28;20201;-86
2021/12/22 04:28:58;;;;;;;26.92;20.00;;;-3.00;99.90;;;;;;5065216;28;20193;-86
2021/12/22 04:31:24;;;;;;;31.65;23.10;;;-3.00;99.90;;;;;;5070097;28;20224;-87
2021/12/22 04:33:53;;;;;;;29.90;23.58;;;-3.00;99.90;;;;;;5065061;28;20201;-86
2021/12/22 04:36:20;;;;;;;27.65;20.05;;;-3.00;99.90;;;;;;5067708;28;20223;-87
2021/12/22 04:38:46;;;;;;;30.40;19.67;;;-3.00;99.90;;;;;;5070883;28;20204;-87
2021/12/22 04:41:13;;;;;;;30.67;20.77;;;-3.10;99.90;;;;;;5077132;28;20220;-86
2021/12/22 04:43:40;;;;;;;29.90;21.90;;;-3.10;99.90;;;;;;5095468;28;20181;-87
2021/12/22 04:46:06;;;;;;;30.65;19.90;;;-3.10;99.90;;;;;;5085791;28;20205;-87
2021/12/22 04:48:35;;;;;;;26.33;21.40;;;-3.20;99.90;;;;;;5077357;28;20280;-87
2021/12/22 04:51:12;;;;;;;30.20;21.13;;;-3.20;99.90;;;;;;5059584;28;20748;-87
2021/12/22 04:53:49;;;;;;;32.60;21.80;;;-3.10;99.90;;;;;;5077904;28;20283;-86
2021/12/22 04:56:16;;;;;;;31.42;21.50;;;-3.10;99.90;;;;;;5066799;28;20229;-87
2021/12/22 04:58:42;;;;;;;28.55;20.08;;;-3.10;99.90;;;;;;5057462;28;20210;-86
2021/12/22 05:01:09;;;;;;;32.70;20.95;;;-3.10;99.90;;;;;;5057956;28;20213;-87
2021/12/22 05:03:49;;;;;;;29.75;20.45;;;-3.10;99.90;;;;;;5077945;22;20239;-89
2021/12/22 05:06:38;;;;;;;26.92;21.63;;;-3.10;99.90;;;;;;5094068;28;20228;-89
2021/12/22 05:12:14;;;;;;;27.13;18.25;;;-3.20;99.90;;;;;;5081550;28;20185;-87
2021/12/22 05:15:14;;;;;;;23.25;18.70;;;-3.20;99.90;;;;;;5065621;28;20257;-87
2021/12/22 05:21:22;;;;;;;32.90;20.30;;;-3.30;99.90;;;;;;5042921;28;20211;-87
2021/12/22 05:24:58;;;;;;;;;;;;;;;;;;;;;
2021/12/22 05:28:03;;;;;;;30.83;20.70;;;-3.30;99.90;;;;;;5046714;28;20227;-87
2021/12/22 05:31:05;;;;;;;;;;;;;;;;;;;;;
2021/12/22 05:34:00;;;;;;;32.67;20.23;;;-3.30;99.90;;;;;;5072946;28;20298;-87
2021/12/22 05:36:42;;;;;;;30.30;19.10;;;-3.30;99.90;;;;;;5054680;28;20583;-87
2021/12/22 05:42:01;;;;;;;31.52;21.35;;;-3.30;99.90;;;;;;5063798;28;20208;-87
2021/12/22 05:44:38;;;;;;;32.72;21.30;;;-3.30;99.90;;;;;;5052756;28;20198;-87
2021/12/22 05:47:23;;;;;;;29.63;21.67;;;-3.30;99.90;;;;;;5067014;28;20563;-87
2021/12/22 05:49:53;;;;;;;25.08;18.13;;;-3.30;99.90;;;;;;5060950;28;20193;-89
2021/12/22 05:52:36;;;;;;;29.45;20.45;;;-3.30;99.90;;;;;;5060549;28;20201;-88
2021/12/22 05:55:11;;;;;;;27.63;19.15;;;-3.40;99.90;;;;;;5077101;28;20272;-88
2021/12/22 05:57:53;;;;;;;32.47;20.10;;;-3.40;99.90;;;;;;5068985;28;20204;-88
2021/12/22 06:00:22;;;;;;;30.80;20.30;;;-3.40;99.90;;;;;;5061727;28;20200;-88
2021/12/22 06:02:51;;;;;;;25.17;20.15;;;-3.40;99.90;;;;;;5066588;28;20225;-88
2021/12/22 06:05:22;;;;;;;27.55;19.33;;;-3.40;99.90;;;;;;5056722;28;20208;-88
2021/12/22 06:07:49;;;;;;;32.63;21.83;;;-3.40;99.90;;;;;;5056776;28;20275;-88
2021/12/22 06:10:25;;;;;;;26.35;19.17;;;-3.50;99.90;;;;;;5070933;28;20207;-88
2021/12/22 06:12:52;;;;;;;25.48;19.05;;;-3.50;99.90;;;;;;5082053;28;20220;-88
2021/12/22 06:15:19;;;;;;;28.85;20.98;;;-3.50;99.90;;;;;;5084448;28;20214;-88
2021/12/22 06:17:48;;;;;;;27.73;20.13;;;-3.50;99.90;;;;;;5088030;28;20231;-88
2021/12/22 06:20:17;;;;;;;28.45;20.92;;;-3.50;99.90;;;;;;5084608;28;20204;-89
2021/12/22 06:22:43;;;;;;;27.88;20.50;;;-3.50;99.90;;;;;;5066557;28;20268;-88
2021/12/22 06:25:11;;;;;;;26.70;18.40;;;-3.50;99.90;;;;;;5079051;28;20204;-88
2021/12/22 06:27:38;;;;;;;29.33;21.75;;;-3.50;99.90;;;;;;5085285;28;20197;-88
2021/12/22 06:30:06;;;;;;;28.10;20.33;;;-3.50;99.90;;;;;;5059807;28;20198;-88
2021/12/22 06:32:32;;;;;;;32.65;22.30;;;-3.50;99.90;;;;;;5059116;28;20223;-88
2021/12/22 06:34:59;;;;;;;27.85;20.50;;;-3.40;99.90;;;;;;5067531;28;20204;-88
2021/12/22 06:37:30;;;;;;;30.00;21.00;;;-3.40;99.90;;;;;;5081635;28;20189;-88
2021/12/22 06:39:56;;;;;;;28.40;19.38;;;-3.50;99.90;;;;;;5067600;28;20229;-88
2021/12/22 06:42:23;;;;;;;28.05;19.98;;;-3.50;99.90;;;;;;5063992;28;20226;-89
2021/12/22 06:44:50;;;;;;;34.92;20.25;;;-3.50;99.90;;;;;;5065550;28;20201;-86
2021/12/22 06:47:17;;;;;;;29.95;20.00;;;-3.60;99.90;;;;;;5067613;28;20193;-86
2021/12/22 06:49:44;;;;;;;31.60;21.33;;;-3.60;99.90;;;;;;5068429;28;20197;-86
2021/12/22 06:52:11;;;;;;;30.42;20.50;;;-3.60;99.90;;;;;;5056477;28;20684;-87
2021/12/22 06:54:40;;;;;;;29.98;20.65;;;-3.50;99.90;;;;;;5063493;28;20199;-87
2021/12/22 06:57:07;;;;;;;27.27;19.52;;;-3.50;99.90;;;;;;5072958;28;20210;-87
2021/12/22 06:59:34;;;;;;;29.23;18.55;;;-3.50;99.90;;;;;;5099050;28;20193;-88
2021/12/22 07:02:01;;;;;;;35.03;20.27;;;-3.50;99.90;;;;;;5069245;28;20203;-87
2021/12/22 07:04:27;;;;;;;33.15;22.13;;;-3.50;99.90;;;;;;5063157;28;20199;-87
2021/12/22 07:06:55;;;;;;;33.05;20.77;;;-3.60;99.90;;;;;;5074148;28;20193;-88
2021/12/22 07:09:25;;;;;;;31.58;22.13;;;-3.60;99.90;;;;;;5055929;28;20206;-86
2021/12/22 07:11:56;;;;;;;29.35;19.85;;;-3.60;99.90;;;;;;5056037;28;20197;-88
2021/12/22 07:14:23;;;;;;;29.48;19.48;;;-3.60;99.90;;;;;;5059271;28;20235;-88
2021/12/22 07:16:52;;;;;;;30.77;21.10;;;-3.60;99.90;;;;;;5083200;28;20222;-88
2021/12/22 07:19:19;;;;;;;30.90;21.58;;;-3.60;99.90;;;;;;5092893;28;20262;-88
2021/12/22 07:21:48;;;;;;;31.40;20.10;;;-3.60;99.90;;;;;;5073110;28;20197;-88
2021/12/22 07:24:16;;;;;;;35.35;22.67;;;-3.60;99.90;;;;;;5079933;28;20221;-87
2021/12/22 07:26:44;;;;;;;35.53;21.05;;;-3.50;99.90;;;;;;5068948;28;20734;-87
2021/12/22 07:29:15;;;;;;;30.27;20.40;;;-3.50;99.90;;;;;;5073549;28;20197;-88
2021/12/22 07:31:42;;;;;;;28.73;20.58;;;-3.50;99.90;;;;;;5062126;28;20196;-87
2021/12/22 07:34:16;;;;;;;31.17;19.83;;;-3.50;99.90;;;;;;5074642;28;20361;-87
2021/12/22 07:36:51;;;;;;;26.20;19.05;;;-3.50;99.90;;;;;;5070713;28;20213;-87
2021/12/22 07:39:21;;;;;;;39.35;23.17;;;-3.50;99.90;;;;;;5066327;28;20231;-88
2021/12/22 07:41:48;;;;;;;37.10;19.02;;;-3.50;99.90;;;;;;5083059;28;20205;-88
2021/12/22 07:44:19;;;;;;;28.17;22.27;;;-3.40;99.90;;;;;;5067564;28;20235;-87
2021/12/22 07:46:47;;;;;;;31.20;21.60;;;-3.40;99.90;;;;;;5059527;28;20882;-87
2021/12/22 07:49:14;;;;;;;31.75;21.73;;;-3.40;99.90;;;;;;5065676;28;20193;-88
2021/12/22 07:51:41;;;;;;;32.13;22.77;;;-3.30;99.90;;;;;;5076505;28;20201;-87
2021/12/22 07:54:08;;;;;;;27.88;19.65;;;-3.20;99.90;;;;;;5068034;28;20212;-88
2021/12/22 07:56:35;;;;;;;30.00;20.90;;;-3.20;99.90;;;;;;5067128;28;20680;-88
2021/12/22 07:59:02;;;;;;;34.65;20.73;;;-3.20;99.90;;;;;;5076382;28;20251;-89
2021/12/22 08:01:32;;;;;;;26.77;20.00;;;-3.20;99.90;;;;;;5087531;28;20191;-86
2021/12/22 08:04:06;;;;;;;29.02;20.48;;;-3.10;99.90;;;;;;5096523;28;20322;-87
2021/12/22 08:06:33;;;;;;;29.80;20.33;;;-3.10;99.90;;;;;;5097635;28;20249;-87
2021/12/22 08:09:01;;;;;;;24.50;18.52;;;-3.00;99.90;;;;;;5088830;28;20200;-88
2021/12/22 08:11:28;;;;;;;31.08;21.98;;;-3.00;99.90;;;;;;5069782;28;20260;-88
2021/12/22 08:13:55;;;;;;;29.70;21.60;;;-3.00;99.90;;;;;;5060704;28;20214;-88
2021/12/22 08:16:23;;;;;;;29.02;19.35;;;-2.90;99.90;;;;;;5056207;28;20482;-89
2021/12/22 08:18:53;;;;;;;32.45;20.65;;;-2.90;99.90;;;;;;5061540;28;20208;-87
2021/12/22 08:21:20;;;;;;;31.17;21.50;;;-2.70;99.90;;;;;;5083040;28;20203;-87
2021/12/22 08:23:49;;;;;;;32.13;21.67;;;-2.70;99.90;;;;;;5093611;28;20221;-88
2021/12/22 08:26:17;;;;;;;34.92;21.80;;;-2.70;99.90;;;;;;5075721;28;20201;-88
2021/12/22 08:28:48;;;;;;;29.48;19.60;;;-2.60;99.90;;;;;;5070583;28;20204;-88
2021/12/22 08:31:16;;;;;;;29.55;20.55;;;-2.60;99.90;;;;;;5080884;28;20201;-88
2021/12/22 08:33:45;;;;;;;30.98;19.90;;;-2.50;99.90;;;;;;5076502;28;20228;-88
2021/12/22 08:39:01;;;;;;;30.83;21.65;;;-2.40;99.90;;;;;;5085070;28;20216;-88
2021/12/22 08:41:30;;;;;;;31.58;21.90;;;-2.30;99.90;;;;;;5069470;28;20202;-88
2021/12/22 08:44:03;;;;;;;29.85;21.50;;;-2.30;99.90;;;;;;5082295;28;20251;-89
2021/12/22 08:46:31;;;;;;;26.70;19.63;;;-2.20;99.90;;;;;;5058626;28;20212;-89
2021/12/22 08:48:59;;;;;;;34.67;21.48;;;-2.10;99.90;;;;;;5065370;28;20201;-88
2021/12/22 08:51:27;;;;;;;26.35;20.63;;;-1.60;99.90;;;;;;5078401;28;20276;-88
2021/12/22 08:53:57;;;;;;;33.17;21.65;;;-0.80;99.90;;;;;;5076343;28;20235;-88
2021/12/22 08:56:27;;;;;;;27.92;21.33;;;-0.70;99.90;;;;;;5056698;28;20226;-88
2021/12/22 08:58:56;;;;;;;33.85;22.73;;;-0.30;99.90;;;;;;5057259;28;20649;-88
2021/12/22 09:01:26;;;;;;;33.42;21.77;;;0.70;99.90;;;;;;5076598;28;20293;-88
2021/12/22 09:03:55;;;;;;;30.77;21.90;;;1.00;99.90;;;;;;5076019;28;20242;-86
2021/12/22 09:06:24;;;;;;;32.47;22.88;;;0.90;99.90;;;;;;5076534;28;20209;-87
2021/12/22 09:08:58;;;;;;;22.25;19.38;;;0.70;99.90;;;;;;5061366;28;20203;-87
2021/12/22 09:11:28;;;;;;;31.50;21.73;;;1.00;99.90;;;;;;5062259;28;20216;-87
2021/12/22 09:13:55;;;;;;;30.85;21.23;;;1.30;99.90;;;;;;5061813;28;20586;-88
2021/12/22 09:16:23;;;;;;;30.85;21.77;;;1.20;99.90;;;;;;5060147;28;20228;-88
2021/12/22 09:18:50;;;;;;;31.08;21.17;;;1.10;99.90;;;;;;5077277;28;20205;-88
2021/12/22 09:21:21;;;;;;;25.38;21.05;;;0.80;99.90;;;;;;5080448;28;20664;-87
2021/12/22 09:23:49;;;;;;;27.15;20.80;;;0.80;99.90;;;;;;5078272;28;20234;-88
2021/12/22 09:26:19;;;;;;;30.17;21.50;;;0.90;99.90;;;;;;5075462;28;20193;-89
2021/12/22 09:28:47;;;;;;;28.15;20.88;;;0.80;99.90;;;;;;5055498;28;20198;-88
2021/12/22 09:31:19;;;;;;;30.27;20.92;;;0.50;99.90;;;;;;5056623;28;20218;-88
2021/12/22 09:33:47;;;;;;;26.50;20.00;;;0.30;99.90;;;;;;5075341;28;20335;-87
2021/12/22 09:36:17;;;;;;;28.23;22.20;;;0.30;99.90;;;;;;5071514;28;20223;-87
2021/12/22 09:38:46;;;;;;;28.35;20.77;;;0.30;99.90;;;;;;5034379;28;20206;-86
2021/12/22 09:41:17;;;;;;;31.15;21.50;;;0.20;99.90;;;;;;5058314;28;20217;-86
2021/12/22 09:43:47;;;;;;;28.73;21.60;;;0.30;99.90;;;;;;5073042;28;20217;-87
2021/12/22 09:46:18;;;;;;;29.45;22.45;;;0.30;99.90;;;;;;5068042;28;20576;-86
2021/12/22 09:48:59;;;;;;;30.05;20.13;;;0.40;99.90;;;;;;5073022;28;20582;-87
2021/12/22 09:54:14;;;;;;;34.08;21.35;;;1.00;99.90;;;;;;5072960;28;20244;-87
2021/12/22 09:56:44;;;;;;;25.63;18.75;;;1.90;99.90;;;;;;5078256;28;20239;-87
2021/12/22 09:59:12;;;;;;;25.92;20.08;;;2.50;99.90;;;;;;5091445;28;20203;-88
2021/12/22 10:01:39;;;;;;;33.88;21.77;;;2.50;99.10;;;;;;5096994;28;20209;-88
2021/12/22 10:04:06;;;;;;;28.20;20.95;;;2.60;98.70;;;;;;5088103;28;20237;-90
2021/12/22 10:06:36;;;;;;;24.50;20.00;;;3.00;98.70;;;;;;5063916;28;20194;-88
2021/12/22 10:09:10;;;;;;;32.10;22.33;;;3.80;98.10;;;;;;5072994;28;20224;-88
2021/12/22 10:15:18;;;;;;;25.47;21.37;;;5.50;94.40;;;;;;4951298;28;20236;-86
2021/12/22 10:18:19;;;;;;;23.70;20.53;;;6.80;91.90;;;;;;5062724;28;20471;-87
2021/12/22 10:21:21;;;;;;;26.13;21.00;;;7.80;87.20;;;;;;5056857;28;20447;-87
2021/12/22 10:23:54;;;;;;;30.00;21.10;;;8.40;82.30;;;;;;5051596;28;20468;-87
2021/12/22 10:26:52;;;;;;;26.27;20.83;;;9.70;79.60;;;;;;5049863;28;21020;-87
2021/12/22 10:29:35;;;;;;;23.03;20.70;;;10.90;72.50;;;;;;5051224;28;20449;-87
2021/12/22 10:32:25;;;;;;;22.70;19.97;;;10.20;68.90;;;;;;5054216;28;20458;-87
2021/12/22 10:38:21;;;;;;;27.87;22.20;;;12.30;63.70;;;;;;5068075;28;20464;-87
2021/12/22 10:41:23;;;;;;;24.70;20.70;;;12.70;60.80;;;;;;5049590;28;20483;-88
2021/12/22 10:44:06;;;;;;;21.57;19.40;;;13.50;58.30;;;;;;5068175;28;20455;-87
2021/12/22 10:47:14;;;;;;;22.60;20.30;;;13.50;56.90;;;;;;5072731;28;20436;-88
2021/12/22 10:50:13;;;;;;;20.70;18.60;;;13.60;56.80;;;;;;4979393;28;20580;-87
2021/12/22 10:53:10;;;;;;;21.87;18.93;;;14.00;54.60;;;;;;5010553;28;20486;-88
2021/12/22 10:56:25;;;;;;;22.07;19.83;;;13.60;54.40;;;;;;5055902;28;20463;-88
2021/12/22 10:59:24;;;;;;;23.57;21.17;;;15.20;53.60;;;;;;5058891;28;20547;-88
2021/12/22 11:02:26;;;;;;;23.33;20.37;;;14.60;51.60;;;;;;5065957;28;20523;-88
2021/12/22 11:05:27;;;;;;;21.80;19.30;;;14.10;51.00;;;;;;5060556;28;20456;-89
2021/12/22 11:08:07;;;;;;;22.47;19.87;;;15.70;52.00;;;;;;5056915;28;20445;-88
2021/12/22 11:17:33;;;;;;;23.10;19.40;;;14.60;49.40;;;;;;4956131;28;20488;-88
2021/12/22 11:26:32;;;;;;;27.50;20.63;;;14.20;51.30;;;;;;5014998;28;20968;-88
2021/12/22 11:29:40;;;;;;;21.53;19.53;;;14.30;49.80;;;;;;4995092;28;20531;-88
2021/12/22 11:32:31;;;;;;;21.93;19.73;;;14.30;50.00;;;;;;5051692;28;20470;-88
2021/12/22 11:39:34;;;;;;;20.37;18.23;;;13.50;49.60;;;;;;5076383;28;20476;-92
2021/12/22 11:49:03;;;;;;;21.10;18.80;;;14.30;49.30;;;;;;5061118;28;20451;-88
2021/12/22 11:51:42;;;;;;;20.73;18.57;;;13.20;50.80;;;;;;5063190;28;20455;-89
2021/12/22 11:54:30;;;;;;;20.13;18.10;;;12.90;51.30;;;;;;5075457;28;20472;-86
2021/12/22 12:07:17;;;;;;;21.10;19.10;;;14.40;49.00;;;;;;5070987;28;20445;-88
2021/12/22 12:09:47;;;;;;;21.23;19.07;;;14.80;50.40;;;;;;4995727;28;20460;-86
2021/12/22 12:12:45;;;;;;;20.13;17.97;;;15.50;47.70;;;;;;4990959;28;20466;-86
2021/12/22 12:15:24;;;;;;;20.20;18.13;;;14.60;47.20;;;;;;5060104;28;20447;-86
2021/12/22 12:23:23;;;;;;;20.70;18.50;;;14.90;48.70;;;;;;5085613;28;20821;-85
2021/12/22 12:25:50;;;;;;;18.43;16.37;;;13.40;48.60;;;;;;5090754;28;20454;-85
2021/12/22 12:28:19;;;;;;;18.50;16.70;;;14.50;49.80;;;;;;5088704;28;20878;-86
2021/12/22 12:33:36;;;;;;;19.60;17.53;;;15.60;46.40;;;;;;5076524;28;20466;-86
2021/12/22 12:36:12;;;;;;;18.00;16.10;;;13.60;46.50;;;;;;5083974;28;20477;-86
2021/12/22 12:38:50;;;;;;;18.40;16.50;;;13.30;48.10;;;;;;5081406;28;21094;-86
2021/12/22 12:41:27;;;;;;;17.60;15.77;;;12.60;49.10;;;;;;5079076;28;20435;-87
2021/12/22 12:44:13;;;;;;;17.73;15.57;;;11.40;49.80;;;;;;5092954;28;20473;-85
2021/12/22 12:46:58;;;;;;;17.93;16.07;;;10.60;52.20;;;;;;5060212;28;20459;-85
2021/12/22 12:49:34;;;;;;;18.10;16.20;;;9.80;54.20;;;;;;5055772;28;20440;-84
2021/12/22 12:52:07;;;;;;;19.27;16.27;;;9.30;56.70;;;;;;5087104;28;20518;-83
2021/12/22 12:54:39;;;;;;;17.77;15.80;;;8.90;56.70;;;;;;5081423;28;20819;-84
2021/12/22 12:57:32;;;;;;;17.23;15.43;;;8.00;57.30;;;;;;5059566;28;20449;-87
2021/12/22 13:00:06;;;;;;;16.93;15.23;;;7.50;61.10;;;;;;5070804;28;20451;-87
2021/12/22 13:02:37;;;;;;;18.87;15.43;;;7.20;61.70;;;;;;5075737;28;20483;-87
2021/12/22 13:05:14;;;;;;;23.47;16.30;;;6.90;62.80;;;;;;5074054;28;21002;-89
2021/12/22 13:07:47;;;;;;;19.23;17.20;;;6.80;63.90;;;;;;5062188;28;20468;-88
2021/12/22 13:10:23;;;;;;;16.80;14.63;;;7.20;65.60;;;;;;5062910;28;20448;-87
2021/12/22 13:15:54;;;;;;;22.87;16.47;;;6.60;65.00;;;;;;5056346;28;20454;-87
2021/12/22 13:18:30;;;;;;;19.27;15.90;;;6.40;66.20;;;;;;5064241;28;20487;-86
2021/12/22 13:21:06;;;;;;;22.70;17.27;;;6.10;67.10;;;;;;5053990;28;20478;-87
2021/12/22 13:23:35;;;;;;;19.67;16.63;;;6.10;68.70;;;;;;5068411;28;20478;-87
2021/12/22 13:26:02;;;;;;;25.43;18.07;;;6.80;68.80;;;;;;5073701;28;21111;-88
2021/12/22 13:28:32;;;;;;;27.33;18.27;;;7.20;67.10;;;;;;5081803;28;20482;-88
2021/12/22 13:31:02;;;;;;;20.73;18.10;;;8.00;65.30;;;;;;5078544;28;20546;-87
2021/12/22 13:33:33;;;;;;;19.80;17.67;;;8.30;64.00;;;;;;5074360;28;20463;-87
2021/12/22 13:36:03;;;;;;;18.07;16.00;;;8.60;64.60;;;;;;5047088;28;20459;-87
2021/12/22 13:38:32;;;;;;;22.37;17.00;;;8.40;61.70;;;;;;5053813;28;20472;-88
2021/12/22 13:41:02;;;;;;;19.53;17.43;;;8.50;62.20;;;;;;5073577;28;20451;-88
2021/12/22 13:43:33;;;;;;;21.90;17.80;;;8.80;60.90;;;;;;5081915;28;20436;-87
2021/12/22 13:46:28;;;;;;;23.03;17.83;;;9.00;60.30;;;;;;5094355;28;20403;-88
2021/12/22 13:48:57;;;;;;;24.77;17.90;;;9.10;60.00;;;;;;5009543;28;20545;-88
2021/12/22 13:51:27;;;;;;;21.00;18.80;;;9.20;59.80;;;;;;5041925;28;20516;-88
2021/12/22 13:53:56;;;;;;;23.93;18.83;;;9.00;60.50;;;;;;5073430;28;20525;-88
2021/12/22 13:56:26;;;;;;;19.93;17.60;;;8.80;60.50;;;;;;5072820;28;20441;-87
2021/12/22 13:58:56;;;;;;;24.23;19.57;;;8.30;61.00;;;;;;5053972;28;20483;-88
2021/12/22 14:01:29;;;;;;;23.00;19.07;;;7.70;62.70;;;;;;5058686;28;20483;-88
2021/12/22 14:04:11;;;;;;;24.30;19.00;;;7.20;64.80;;;;;;5054163;28;20488;-87
2021/12/22 14:06:39;;;;;;;18.50;16.40;;;7.10;65.60;;;;;;5061510;28;20454;-88
2021/12/22 14:09:09;;;;;;;25.20;18.20;;;6.80;65.90;;;;;;5074423;28;20756;-87